createdAt,value
2023-05-05T00:01:04.056Z,5.87
2023-05-05T00:03:34.322Z,5.97
2023-05-05T00:06:02.914Z,6.87
2023-05-05T00:08:31.727Z,5.67
2023-05-05T00:11:00.407Z,6.77
2023-05-05T00:13:29.073Z,6.27
2023-05-05T00:15:57.589Z,6.13
2023-05-05T00:18:28.336Z,5.80
2023-05-05T00:20:57.234Z,6.23
2023-05-05T00:23:26.013Z,5.80
2023-05-05T00:25:54.595Z,6.60
2023-05-05T00:28:23.167Z,6.33
2023-05-05T00:30:52.219Z,5.80
2023-05-05T00:33:21.094Z,6.63
2023-05-05T00:35:51.563Z,5.57
2023-05-05T00:38:20.187Z,6.07
2023-05-05T00:40:49.185Z,6.03
2023-05-05T00:43:17.588Z,6.23
2023-05-05T00:45:47.984Z,6.37
2023-05-05T00:48:18.981Z,6.30
2023-05-05T00:50:47.696Z,6.33
2023-05-05T00:53:17.522Z,6.07
2023-05-05T00:56:04.005Z,5.93
2023-05-05T00:58:33.148Z,6.63
2023-05-05T01:01:01.813Z,6.73
2023-05-05T01:03:31.104Z,6.10
2023-05-05T01:06:06.853Z,6.33
2023-05-05T01:08:43.977Z,5.90
2023-05-05T01:11:18.469Z,6.10
2023-05-05T01:13:57.189Z,6.53
2023-05-05T01:16:28.846Z,5.50
2023-05-05T01:19:02.085Z,6.37
2023-05-05T01:21:33.427Z,5.97
2023-05-05T01:24:12.218Z,5.73
2023-05-05T01:26:52.584Z,6.37
2023-05-05T01:29:47.770Z,5.57
2023-05-05T01:32:20.493Z,6.50
2023-05-05T01:34:55.135Z,6.57
2023-05-05T01:37:28.384Z,5.80
2023-05-05T01:40:00.391Z,6.23
2023-05-05T01:42:30.841Z,6.20
2023-05-05T01:45:03.173Z,5.93
2023-05-05T01:47:33.886Z,6.40
2023-05-05T01:50:09.716Z,5.23
2023-05-05T01:52:40.114Z,5.23
2023-05-05T01:55:09.987Z,6.70
2023-05-05T01:57:39.169Z,5.53
2023-05-05T02:00:10.213Z,6.13
2023-05-05T02:02:49.330Z,6.40
2023-05-05T02:05:21.920Z,4.90
2023-05-05T02:07:52.156Z,5.23
2023-05-05T02:10:21.055Z,5.37
2023-05-05T02:12:50.233Z,5.50
2023-05-05T02:15:19.178Z,5.57
2023-05-05T02:17:56.521Z,4.90
2023-05-05T02:20:32.924Z,5.17
2023-05-05T02:23:01.496Z,5.93
2023-05-05T02:25:38.324Z,5.93
2023-05-05T02:28:07.560Z,5.40
2023-05-05T02:30:36.933Z,5.27
2023-05-05T02:33:08.639Z,6.07
2023-05-05T02:35:39.585Z,5.93
2023-05-05T02:38:15.168Z,5.90
2023-05-05T02:40:43.886Z,5.77
2023-05-05T02:43:19.841Z,5.20
2023-05-05T02:45:48.756Z,6.13
2023-05-05T02:48:19.804Z,4.63
2023-05-05T02:50:48.385Z,5.97
2023-05-05T02:53:31.540Z,5.17
2023-05-05T02:56:10.034Z,5.30
2023-05-05T02:58:52.327Z,4.77
2023-05-05T03:01:30.399Z,4.80
2023-05-05T03:04:07.748Z,4.03
2023-05-05T03:06:43.161Z,4.03
2023-05-05T03:09:19.800Z,4.23
2023-05-05T03:11:51.749Z,3.93
2023-05-05T03:14:22.160Z,5.50
2023-05-05T03:16:51.863Z,3.60
2023-05-05T03:19:22.605Z,3.67
2023-05-05T03:21:56.136Z,3.57
2023-05-05T03:24:25.397Z,3.43
2023-05-05T03:27:03.757Z,3.20
2023-05-05T03:29:37.037Z,3.50
2023-05-05T03:32:09.593Z,3.03
2023-05-05T03:34:40.693Z,3.57
2023-05-05T03:37:09.191Z,3.27
2023-05-05T03:39:39.184Z,3.00
2023-05-05T03:42:08.992Z,3.27
2023-05-05T03:44:37.968Z,2.40
2023-05-05T03:47:07.136Z,2.63
2023-05-05T03:49:39.718Z,3.03
2023-05-05T03:52:09.233Z,3.00
2023-05-05T03:54:38.729Z,2.50
2023-05-05T03:57:07.335Z,2.80
2023-05-05T03:59:36.226Z,2.70
2023-05-05T04:02:05.219Z,3.20
2023-05-05T04:04:33.767Z,2.73
2023-05-05T04:07:03.934Z,2.50
2023-05-05T04:09:32.532Z,2.47
2023-05-05T04:12:01.580Z,2.80
2023-05-05T04:14:30.829Z,2.60
2023-05-05T04:16:59.582Z,2.63
2023-05-05T04:19:28.487Z,2.60
2023-05-05T04:21:57.239Z,2.60
2023-05-05T04:24:27.365Z,2.77
2023-05-05T04:26:56.927Z,2.50
2023-05-05T04:29:26.222Z,2.60
2023-05-05T04:31:56.203Z,2.40
2023-05-05T04:34:24.815Z,2.50
2023-05-05T04:36:53.672Z,2.27
2023-05-05T04:39:22.549Z,2.33
2023-05-05T04:41:53.154Z,2.20
2023-05-05T04:44:21.541Z,2.47
2023-05-05T04:46:50.655Z,2.40
2023-05-05T04:49:19.146Z,2.33
2023-05-05T04:51:47.844Z,2.10
2023-05-05T04:54:16.362Z,2.60
2023-05-05T04:56:44.828Z,2.53
2023-05-05T04:59:15.269Z,2.47
2023-05-05T05:01:44.210Z,2.87
2023-05-05T05:04:13.030Z,2.43
2023-05-05T05:06:41.682Z,2.20
2023-05-05T05:09:10.276Z,2.20
2023-05-05T05:11:38.869Z,2.20
2023-05-05T05:14:07.569Z,2.83
2023-05-05T05:16:37.773Z,2.27
2023-05-05T05:19:06.651Z,3.03
2023-05-05T05:21:35.284Z,2.63
2023-05-05T05:24:04.094Z,2.03
2023-05-05T05:26:32.738Z,2.73
2023-05-05T05:29:01.294Z,3.00
2023-05-05T05:31:30.169Z,2.90
2023-05-05T05:34:00.147Z,2.23
2023-05-05T05:36:29.372Z,2.50
2023-05-05T05:38:58.287Z,2.43
2023-05-05T05:41:27.206Z,2.80
2023-05-05T05:43:56.387Z,2.40
2023-05-05T05:46:25.202Z,2.60
2023-05-05T05:48:54.490Z,2.33
2023-05-05T05:51:24.494Z,3.70
2023-05-05T05:53:53.263Z,2.57
2023-05-05T05:56:23.424Z,2.67
2023-05-05T05:58:53.056Z,2.13
2023-05-05T06:01:22.346Z,2.63
2023-05-05T06:03:51.202Z,2.43
2023-05-05T06:06:20.375Z,2.53
2023-05-05T06:08:50.403Z,2.50
2023-05-05T06:11:18.945Z,2.10
2023-05-05T06:13:47.882Z,2.23
2023-05-05T06:16:16.514Z,2.10
2023-05-05T06:18:47.254Z,2.57
2023-05-05T06:21:16.191Z,2.67
2023-05-05T06:23:45.084Z,2.10
2023-05-05T06:26:15.491Z,2.43
2023-05-05T06:28:44.251Z,2.50
2023-05-05T06:31:13.133Z,2.73
2023-05-05T06:33:41.648Z,2.20
2023-05-05T06:36:10.543Z,2.50
2023-05-05T06:38:39.150Z,2.57
2023-05-05T06:41:07.984Z,2.50
2023-05-05T06:43:38.288Z,2.43
2023-05-05T06:46:12.153Z,3.00
2023-05-05T06:48:40.968Z,2.90
2023-05-05T06:51:10.174Z,2.47
2023-05-05T06:53:38.789Z,2.30
2023-05-05T06:56:07.540Z,2.10
2023-05-05T06:58:37.446Z,2.83
2023-05-05T07:01:06.367Z,2.30
2023-05-05T07:03:35.273Z,2.90
2023-05-05T07:06:03.767Z,2.33
2023-05-05T07:08:32.280Z,2.50
2023-05-05T07:11:01.109Z,2.30
2023-05-05T07:13:29.854Z,2.10
2023-05-05T07:15:59.956Z,2.47
2023-05-05T07:18:28.740Z,2.43
2023-05-05T07:20:57.457Z,2.40
2023-05-05T07:23:25.986Z,2.47
2023-05-05T07:25:55.372Z,2.03
2023-05-05T07:28:24.222Z,2.43
2023-05-05T07:30:53.270Z,2.40
2023-05-05T07:33:23.273Z,2.17
2023-05-05T07:35:51.862Z,2.73
2023-05-05T07:38:20.715Z,2.40
2023-05-05T07:40:49.298Z,2.63
2023-05-05T07:43:17.748Z,1.80
2023-05-05T07:45:46.280Z,2.57
2023-05-05T07:48:15.090Z,2.50
2023-05-05T07:50:45.181Z,2.60
2023-05-05T07:53:15.054Z,1.97
2023-05-05T07:55:43.797Z,2.57
2023-05-05T07:58:12.478Z,2.70
2023-05-05T08:00:41.248Z,2.00
2023-05-05T08:03:11.643Z,2.60
2023-05-05T08:05:41.185Z,2.97
2023-05-05T08:08:11.485Z,2.47
2023-05-05T08:10:40.154Z,2.97
2023-05-05T08:13:08.690Z,2.50
2023-05-05T08:15:37.222Z,1.90
2023-05-05T08:18:05.764Z,2.70
2023-05-05T08:20:34.284Z,2.77
2023-05-05T08:23:02.950Z,2.53
2023-05-05T08:25:32.961Z,3.03
2023-05-05T08:28:01.640Z,2.50
2023-05-05T08:30:30.393Z,2.20
2023-05-05T08:33:00.325Z,2.63
2023-05-05T08:35:29.364Z,3.00
2023-05-05T08:37:59.307Z,2.70
2023-05-05T08:40:34.196Z,2.33
2023-05-05T08:43:02.797Z,2.03
2023-05-05T08:45:31.871Z,2.40
2023-05-05T08:48:03.327Z,2.83
2023-05-05T08:50:33.225Z,2.17
2023-05-05T08:53:10.316Z,2.23
2023-05-05T08:55:47.595Z,2.50
2023-05-05T08:58:17.395Z,2.70
2023-05-05T09:00:46.777Z,2.13
2023-05-05T09:03:16.653Z,1.90
2023-05-05T09:05:45.618Z,2.43
2023-05-05T09:08:14.598Z,2.70
2023-05-05T09:10:44.894Z,2.60
2023-05-05T09:13:13.806Z,2.20
2023-05-05T09:15:42.734Z,2.30
2023-05-05T09:18:12.562Z,2.73
2023-05-05T09:20:41.842Z,2.20
2023-05-05T09:23:11.488Z,1.93
2023-05-05T09:25:40.941Z,2.17
2023-05-05T09:28:12.767Z,2.40
2023-05-05T09:30:42.761Z,2.30
2023-05-05T09:33:11.593Z,2.27
2023-05-05T09:35:51.157Z,1.87
2023-05-05T09:38:20.074Z,1.93
2023-05-05T09:40:49.858Z,2.50
2023-05-05T09:43:22.070Z,2.33
2023-05-05T09:45:50.927Z,1.97
2023-05-05T09:48:26.960Z,2.60
2023-05-05T09:50:56.254Z,2.40
2023-05-05T09:53:25.571Z,1.80
2023-05-05T09:55:55.465Z,2.33
2023-05-05T09:58:27.178Z,1.83
2023-05-05T10:00:56.416Z,2.43
2023-05-05T10:03:25.683Z,1.83
2023-05-05T10:05:55.856Z,2.57
2023-05-05T10:08:26.012Z,2.07
2023-05-05T10:10:55.584Z,2.20
2023-05-05T10:13:26.715Z,2.00
2023-05-05T10:15:57.349Z,1.90
2023-05-05T10:18:27.806Z,1.67
2023-05-05T10:20:59.420Z,2.40
2023-05-05T10:23:34.365Z,1.63
2023-05-05T10:26:04.674Z,2.37
2023-05-05T10:28:46.922Z,3.47
2023-05-05T10:31:26.234Z,2.13
2023-05-05T10:33:58.516Z,2.07
2023-05-05T10:36:27.931Z,1.97
2023-05-05T10:38:57.940Z,2.20
2023-05-05T10:41:27.087Z,2.17
2023-05-05T10:43:58.390Z,2.87
2023-05-05T10:46:27.849Z,1.50
2023-05-05T10:49:01.732Z,2.30
2023-05-05T10:51:40.696Z,2.43
2023-05-05T10:54:13.065Z,1.97
2023-05-05T10:56:42.394Z,2.40
2023-05-05T10:59:50.568Z,1.97
2023-05-05T11:02:24.943Z,2.30
2023-05-05T11:05:17.653Z,2.37
2023-05-05T11:07:47.306Z,2.20
2023-05-05T11:10:17.077Z,2.77
2023-05-05T11:13:21.343Z,2.57
2023-05-05T11:15:50.949Z,2.03
2023-05-05T11:18:36.867Z,2.20
2023-05-05T11:21:19.513Z,2.20
2023-05-05T11:23:50.036Z,2.13
2023-05-05T11:26:19.649Z,2.80
2023-05-05T11:28:59.952Z,2.00
2023-05-05T11:31:29.592Z,2.63
2023-05-05T11:34:29.589Z,2.23
2023-05-05T11:36:59.864Z,2.00
2023-05-05T11:39:38.105Z,1.67
2023-05-05T11:42:22.356Z,2.43
2023-05-05T11:44:51.258Z,2.33
2023-05-05T11:47:43.889Z,2.60
2023-05-05T11:50:23.165Z,2.50
2023-05-05T11:52:52.062Z,2.33
2023-05-05T11:55:27.060Z,2.23
2023-05-05T11:57:55.851Z,2.57
2023-05-05T12:00:33.813Z,2.60
2023-05-05T12:03:02.607Z,3.63
2023-05-05T12:05:35.713Z,2.60
2023-05-05T12:08:05.311Z,2.63
2023-05-05T12:10:34.164Z,2.10
2023-05-05T12:13:03.207Z,2.50
2023-05-05T12:15:33.333Z,4.23
2023-05-05T12:18:02.995Z,2.87
2023-05-05T12:20:35.073Z,3.13
2023-05-05T12:23:04.948Z,3.93
2023-05-05T12:25:38.362Z,2.83
2023-05-05T12:28:08.333Z,3.53
2023-05-05T12:30:37.392Z,2.93
2023-05-05T12:33:07.271Z,2.90
2023-05-05T12:35:37.953Z,2.73
2023-05-05T12:38:07.079Z,3.03
2023-05-05T12:40:47.510Z,3.10
2023-05-05T12:43:31.249Z,2.43
2023-05-05T12:46:12.052Z,2.80
2023-05-05T12:48:45.580Z,2.70
2023-05-05T12:51:23.419Z,2.30
2023-05-05T12:54:04.379Z,2.70
2023-05-05T12:56:35.578Z,2.70
2023-05-05T12:59:05.806Z,2.17
2023-05-05T13:01:34.699Z,2.53
2023-05-05T13:04:11.921Z,2.70
2023-05-05T13:06:43.128Z,2.30
2023-05-05T13:09:24.259Z,2.40
2023-05-05T13:11:53.496Z,2.33
2023-05-05T13:14:22.561Z,2.20
2023-05-05T13:16:51.136Z,2.17
2023-05-05T13:19:19.571Z,2.20
2023-05-05T13:21:49.732Z,2.77
2023-05-05T13:24:28.643Z,2.23
2023-05-05T13:27:07.258Z,2.40
2023-05-05T13:29:35.766Z,2.47
2023-05-05T13:32:04.567Z,2.40
2023-05-05T13:34:33.098Z,2.20
2023-05-05T13:37:03.061Z,2.97
2023-05-05T13:39:31.592Z,2.30
2023-05-05T13:42:00.244Z,2.57
2023-05-05T13:44:28.800Z,3.20
2023-05-05T13:46:57.712Z,2.13
2023-05-05T13:49:27.186Z,2.40
2023-05-05T13:51:56.458Z,2.57
2023-05-05T13:54:26.330Z,2.23
2023-05-05T13:56:54.924Z,2.40
2023-05-05T13:59:23.454Z,2.30
2023-05-05T14:01:52.504Z,2.50
2023-05-05T14:04:21.318Z,2.70
2023-05-05T14:06:49.972Z,3.20
2023-05-05T14:09:18.763Z,2.50
2023-05-05T14:11:48.650Z,2.73
2023-05-05T14:14:19.796Z,2.60
2023-05-05T14:16:50.374Z,2.80
2023-05-05T14:19:19.728Z,2.27
2023-05-05T14:21:48.519Z,2.10
2023-05-05T14:24:17.409Z,2.60
2023-05-05T14:26:45.938Z,2.20
2023-05-05T14:29:15.867Z,2.40
2023-05-05T14:31:44.719Z,2.57
2023-05-05T14:34:13.417Z,2.27
2023-05-05T14:36:42.327Z,1.90
2023-05-05T14:39:10.980Z,2.47
2023-05-05T14:41:39.717Z,2.10
2023-05-05T14:44:08.374Z,2.10
2023-05-05T14:46:38.490Z,2.97
2023-05-05T14:49:07.242Z,2.37
2023-05-05T14:51:36.075Z,1.83
2023-05-05T14:54:07.440Z,2.40
2023-05-05T14:56:40.438Z,2.30
2023-05-05T14:59:08.982Z,2.27
2023-05-05T15:01:38.767Z,2.20
2023-05-05T15:04:07.319Z,2.57
2023-05-05T15:06:35.847Z,2.67
2023-05-05T15:09:04.518Z,2.37
2023-05-05T15:11:33.336Z,2.27
2023-05-05T15:14:01.786Z,1.83
2023-05-05T15:16:30.484Z,2.23
2023-05-05T15:19:00.978Z,2.57
2023-05-05T15:21:29.481Z,2.13
2023-05-05T15:23:58.077Z,2.30
2023-05-05T15:26:27.437Z,2.33
2023-05-05T15:28:55.958Z,2.20
2023-05-05T15:31:24.616Z,2.07
2023-05-05T15:33:53.231Z,1.93
2023-05-05T15:36:24.860Z,2.40
2023-05-05T15:38:53.481Z,2.30
2023-05-05T15:41:21.990Z,2.90
2023-05-05T15:43:50.470Z,2.20
2023-05-05T15:46:19.063Z,2.07
2023-05-05T15:48:47.472Z,2.40
2023-05-05T15:51:16.436Z,2.17
2023-05-05T15:53:46.469Z,2.27
2023-05-05T15:56:15.367Z,2.40
2023-05-05T15:58:43.911Z,2.87
2023-05-05T16:01:12.688Z,2.47
2023-05-05T16:03:41.362Z,2.17
2023-05-05T16:06:11.664Z,2.30
2023-05-05T16:08:40.486Z,2.07
2023-05-05T16:11:11.077Z,2.47
2023-05-05T16:13:39.752Z,2.10
2023-05-05T16:16:08.672Z,2.30
2023-05-05T16:18:37.256Z,2.17
2023-05-05T16:21:05.942Z,2.43
2023-05-05T16:23:34.323Z,2.10
2023-05-05T16:26:04.173Z,2.40
2023-05-05T16:28:35.018Z,2.40
2023-05-05T16:31:03.644Z,2.17
2023-05-05T16:33:32.072Z,2.73
2023-05-05T16:36:01.022Z,2.13
2023-05-05T16:38:29.600Z,3.27
2023-05-05T16:40:58.112Z,2.00
2023-05-05T16:43:26.530Z,2.20
2023-05-05T16:45:56.760Z,2.60
2023-05-05T16:48:25.415Z,2.07
2023-05-05T16:50:54.175Z,2.20
2023-05-05T16:53:22.583Z,2.30
2023-05-05T16:55:52.363Z,2.50
2023-05-05T16:58:20.951Z,2.67
2023-05-05T17:00:49.544Z,2.67
2023-05-05T17:03:20.216Z,2.83
2023-05-05T17:05:50.371Z,2.67
2023-05-05T17:08:19.097Z,2.03
2023-05-05T17:10:47.940Z,2.10
2023-05-05T17:13:16.887Z,2.63
2023-05-05T17:15:45.581Z,2.37
2023-05-05T17:18:14.357Z,2.50
2023-05-05T17:20:44.634Z,2.83
2023-05-05T17:23:13.416Z,2.23
2023-05-05T17:25:41.979Z,2.93
2023-05-05T17:28:10.609Z,2.77
2023-05-05T17:30:39.216Z,2.50
2023-05-05T17:33:07.858Z,2.40
2023-05-05T17:35:36.913Z,2.67
2023-05-05T17:38:06.816Z,3.13
2023-05-05T17:40:35.749Z,2.73
2023-05-05T17:43:04.384Z,2.63
2023-05-05T17:45:32.953Z,2.60
2023-05-05T17:48:01.553Z,3.07
2023-05-05T17:50:30.558Z,2.27
2023-05-05T17:53:02.821Z,2.20
2023-05-05T17:55:35.709Z,2.83
2023-05-05T17:58:07.317Z,2.13
2023-05-05T18:00:38.954Z,2.00
2023-05-05T18:03:10.571Z,2.50
2023-05-05T18:05:42.127Z,2.63
2023-05-05T18:08:11.326Z,2.80
2023-05-05T18:10:44.181Z,2.57
2023-05-05T18:13:15.840Z,2.47
2023-05-05T18:15:47.412Z,2.20
2023-05-05T18:18:18.982Z,2.23
2023-05-05T18:20:50.921Z,2.17
2023-05-05T18:23:22.539Z,2.27
2023-05-05T18:25:55.624Z,2.60
2023-05-05T18:28:27.200Z,2.40
2023-05-05T18:30:58.677Z,2.10
2023-05-05T18:33:30.342Z,2.10
2023-05-05T18:36:03.182Z,2.83
2023-05-05T18:38:34.730Z,2.43
2023-05-05T18:41:08.065Z,2.30
2023-05-05T18:43:39.701Z,2.37
2023-05-05T18:46:11.350Z,2.37
2023-05-05T18:48:43.016Z,2.60
2023-05-05T18:51:14.573Z,2.80
2023-05-05T18:53:46.438Z,2.63
2023-05-05T18:56:19.513Z,2.53
2023-05-05T18:58:51.202Z,1.90
2023-05-05T19:01:23.476Z,2.60
2023-05-05T19:03:55.101Z,2.40
2023-05-05T19:06:27.263Z,2.17
2023-05-05T19:08:59.122Z,2.77
2023-05-05T19:11:30.052Z,2.50
2023-05-05T19:14:00.311Z,2.50
2023-05-05T19:16:30.182Z,2.80
2023-05-05T19:19:00.844Z,2.20
2023-05-05T19:21:31.648Z,2.60
2023-05-05T19:24:03.254Z,2.97
2023-05-05T19:26:36.204Z,2.60
2023-05-05T19:29:07.406Z,2.30
2023-05-05T19:31:37.159Z,2.60
2023-05-05T19:34:06.673Z,2.23
2023-05-05T19:36:36.522Z,2.63
2023-05-05T19:39:13.679Z,2.80
2023-05-05T19:41:48.204Z,2.47
2023-05-05T19:44:22.176Z,2.50
2023-05-05T19:46:54.082Z,2.40
2023-05-05T19:49:25.701Z,2.40
2023-05-05T19:51:58.936Z,2.40
2023-05-05T19:54:30.771Z,2.63
2023-05-05T19:57:03.782Z,2.30
2023-05-05T19:59:35.402Z,1.87
2023-05-05T20:02:09.093Z,2.60
2023-05-05T20:04:40.655Z,2.37
2023-05-05T20:07:12.226Z,2.60
2023-05-05T20:09:43.755Z,2.93
2023-05-05T20:12:17.693Z,2.40
2023-05-05T20:14:49.215Z,2.80
2023-05-05T20:17:21.521Z,2.13
2023-05-05T20:19:53.293Z,2.30
2023-05-05T20:22:26.621Z,2.80
2023-05-05T20:24:58.402Z,2.10
2023-05-05T20:27:32.964Z,2.30
2023-05-05T20:30:07.506Z,2.50
2023-05-05T20:32:39.490Z,2.43
2023-05-05T20:35:12.826Z,2.10
2023-05-05T20:37:45.182Z,2.83
2023-05-05T20:40:15.160Z,2.77
2023-05-05T20:42:47.814Z,2.20
2023-05-05T20:45:18.166Z,1.80
2023-05-05T20:47:48.101Z,2.50
2023-05-05T20:50:20.458Z,2.50
2023-05-05T20:52:49.648Z,2.40
2023-05-05T20:55:19.726Z,2.20
2023-05-05T20:57:51.998Z,2.13
2023-05-05T21:00:23.631Z,1.97
2023-05-05T21:02:57.206Z,3.03
2023-05-05T21:05:28.984Z,2.80
2023-05-05T21:08:01.312Z,2.53
2023-05-05T21:10:33.287Z,2.30
2023-05-05T21:13:06.532Z,2.60
2023-05-05T21:15:38.291Z,2.90
2023-05-05T21:18:09.877Z,2.57
2023-05-05T21:20:41.388Z,2.40
2023-05-05T21:23:13.095Z,2.40
2023-05-05T21:25:44.713Z,2.80
2023-05-05T21:28:17.783Z,2.97
2023-05-05T21:31:10.313Z,2.37
2023-05-05T21:33:42.623Z,2.87
2023-05-05T21:36:15.172Z,2.63
2023-05-05T21:38:46.801Z,2.23
2023-05-05T21:41:18.464Z,2.30
2023-05-05T21:43:51.828Z,2.30
2023-05-05T21:46:23.673Z,2.20
2023-05-05T21:48:55.533Z,2.57
2023-05-05T21:51:27.349Z,2.40
2023-05-05T21:53:59.052Z,2.57
2023-05-05T21:56:30.631Z,3.23
2023-05-05T21:59:03.925Z,2.30
2023-05-05T22:01:36.018Z,2.70
2023-05-05T22:04:08.508Z,2.33
2023-05-05T22:06:40.021Z,2.50
2023-05-05T22:09:11.730Z,2.63
2023-05-05T22:11:43.231Z,3.13
2023-05-05T22:14:16.627Z,2.43
2023-05-05T22:16:46.722Z,2.73
2023-05-05T22:19:16.179Z,2.77
2023-05-05T22:21:46.260Z,2.13
2023-05-05T22:24:16.007Z,2.50
2023-05-05T22:26:45.289Z,2.40
2023-05-05T22:29:16.392Z,2.80
2023-05-05T22:31:47.418Z,2.63
2023-05-05T22:34:18.740Z,2.87
2023-05-05T22:36:47.446Z,2.50
2023-05-05T22:39:18.754Z,3.20
2023-05-05T22:41:50.358Z,3.30
2023-05-05T22:44:21.216Z,3.20
2023-05-05T22:46:52.814Z,2.87
2023-05-05T22:49:24.584Z,3.13
2023-05-05T22:51:57.235Z,2.83
2023-05-05T22:54:28.860Z,2.50
2023-05-05T22:57:00.318Z,2.80
2023-05-05T22:59:33.495Z,2.90
2023-05-05T23:02:05.068Z,3.13
2023-05-05T23:04:36.846Z,2.50
2023-05-05T23:07:08.297Z,2.93
2023-05-05T23:09:40.761Z,2.73
2023-05-05T23:12:12.371Z,2.70
2023-05-05T23:14:45.195Z,2.83
2023-05-05T23:17:17.004Z,2.73
2023-05-05T23:19:49.164Z,3.07
2023-05-05T23:22:20.730Z,2.63
2023-05-05T23:24:52.189Z,2.60
2023-05-05T23:27:24.044Z,3.30
2023-05-05T23:29:56.689Z,3.40
2023-05-05T23:32:26.839Z,2.67
2023-05-05T23:34:57.250Z,3.00
2023-05-05T23:37:28.425Z,2.60
2023-05-05T23:40:00.134Z,2.90
2023-05-05T23:42:30.976Z,2.97
2023-05-05T23:45:03.341Z,2.60
2023-05-05T23:47:32.845Z,3.53
2023-05-05T23:50:04.299Z,3.30
2023-05-05T23:52:34.942Z,3.67
2023-05-05T23:55:08.514Z,3.40
2023-05-05T23:57:39.621Z,3.43
